»·PEaware :: N902SQ KRAL-KSBA

N902SQ :: KRAL-KSBA

FLIGHT INFORMATION

Flight Status: Arrived
Operator: Privately registered:
United States
More flights under this callsign
Pilot: Gabor H. (24209)
Aircraft: SOCATA TBM-900
(TBM9)
More flights by this aircraft type
Origin: KRAL Riverside Mun
United States
Destination: KSBA Santa Barbara Mun
United States
More flights between these airports :: More routes between these airports
Route: RAL2 PDZ V197 POM V264 ITSME V186 DEANO V27 KWANG
File this flight plan on PilotEdge
Remarks:
Altitude:
(Current/Filed)
8,000ft
Speed:
(Current/Filed)
0kts
Departed: 02-Nov-23 12:15 PM
Arrived: 02-Nov-23 12:49 PM
Distance/Time
Traveled:
122nm/0:34
Distance/Time
To Go:
Arrived

Flight Plot

Page will automatically refresh every two minutes.

Flight plan parsing failed; only flown route is shown


Map Options




Map Legend


Flown Route
Filed Route
Departure Airport
Arrival Airport
Navaid (VOR, NDB)
Fix

Horizontal Profiles

Position Reports

Time Latitude Longitude Heading Altitude Ground
Speed
02-Nov-23 12:03 33.950253 -117.443046 96 818ft 0kts
02-Nov-23 12:04 33.950253 -117.443046 96 818ft 0kts
02-Nov-23 12:05 33.950253 -117.443046 96 818ft 0kts
02-Nov-23 12:06 33.950253 -117.443046 96 818ft 0kts
02-Nov-23 12:07 33.950253 -117.443046 96 818ft 0kts
02-Nov-23 12:08 33.950253 -117.443046 96 818ft 0kts
02-Nov-23 12:09 33.950253 -117.443046 96 818ft 0kts
02-Nov-23 12:10 33.950277 -117.442828 57 818ft 5kts
02-Nov-23 12:11 33.950751 -117.439723 101 818ft 11kts
02-Nov-23 12:12 33.949912 -117.435507 98 818ft 10kts
02-Nov-23 12:13 33.950446 -117.434863 351 818ft 13kts
02-Nov-23 12:14 33.954499 -117.457721 282 1324ft 143kts
02-Nov-23 12:15 33.943502 -117.499855 224 3958ft 140kts
02-Nov-23 12:16 33.931850 -117.541827 279 6055ft 176kts
02-Nov-23 12:17 33.963862 -117.602968 307 6275ft 231kts
02-Nov-23 12:18 34.000607 -117.661915 306 7771ft 214kts
02-Nov-23 12:19 34.038268 -117.722469 306 8001ft 232kts
02-Nov-23 12:20 34.077314 -117.787598 290 8006ft 249kts
02-Nov-23 12:21 34.077116 -117.872385 268 8017ft 256kts
02-Nov-23 12:22 34.075765 -117.958395 268 8009ft 257kts
02-Nov-23 12:23 34.086173 -118.042353 291 8008ft 257kts
02-Nov-23 12:24 34.111349 -118.123255 290 8001ft 257kts
02-Nov-23 12:25 34.136243 -118.204638 290 7995ft 258kts
02-Nov-23 12:26 34.161039 -118.285980 290 7999ft 258kts
02-Nov-23 12:27 34.185747 -118.367237 290 7998ft 258kts
02-Nov-23 12:28 34.210392 -118.448500 290 7995ft 258kts
02-Nov-23 12:29 34.227184 -118.532301 275 7993ft 257kts
02-Nov-23 12:30 34.234520 -118.618052 276 8070ft 257kts
02-Nov-23 12:31 34.241924 -118.703627 275 8073ft 258kts
02-Nov-23 12:32 34.249339 -118.789982 275 8073ft 258kts
02-Nov-23 12:33 34.256688 -118.876230 275 8054ft 258kts
02-Nov-23 12:34 34.264008 -118.962892 275 8030ft 258kts
02-Nov-23 12:35 34.271235 -119.049160 275 8001ft 258kts
02-Nov-23 12:36 34.278400 -119.135458 275 7999ft 257kts
02-Nov-23 12:37 34.285499 -119.221695 275 8000ft 257kts
02-Nov-23 12:38 34.292528 -119.307765 275 7795ft 259kts
02-Nov-23 12:39 34.299342 -119.392106 275 6574ft 239kts
02-Nov-23 12:40 34.305540 -119.469304 275 5338ft 225kts
02-Nov-23 12:41 34.318840 -119.539773 296 3812ft 214kts
02-Nov-23 12:42 34.343187 -119.601942 294 2799ft 198kts
02-Nov-23 12:43 34.365789 -119.660310 294 2085ft 179kts
02-Nov-23 12:44 34.387179 -119.716476 287 1988ft 183kts
02-Nov-23 12:45 34.405920 -119.766950 292 1141ft 142kts
02-Nov-23 12:46 34.423250 -119.804898 301 644ft 100kts
02-Nov-23 12:47 34.427926 -119.834919 265 37ft 83kts
02-Nov-23 12:48 34.428660 -119.842010 341 16ft 0kts
02-Nov-23 12:49 34.428660 -119.842010 341 16ft 0kts
02-Nov-23 12:50 34.430212 -119.841108 63 16ft 16kts
02-Nov-23 12:51 34.431975 -119.835736 32 16ft 7kts
02-Nov-23 12:52 34.432524 -119.835698 69 16ft 0kts
02-Nov-23 12:53 34.432524 -119.835698 69 16ft 0kts
02-Nov-23 12:54 34.432524 -119.835699 68 16ft 0kts
02-Nov-23 12:55 34.432524 -119.835699 68 16ft 0kts

Navigation Log

Ident Type
Flight plan parsing failed, navigation log unavailable